sensor_id;sensor_type;location;lat;lon;timestamp;temperature;humidity
45537;DHT22;31262;51.978;5.924;2022-07-22T00:02:14;21.20;71.70
45537;DHT22;31262;51.978;5.924;2022-07-22T00:04:40;21.20;71.50
45537;DHT22;31262;51.978;5.924;2022-07-22T00:07:06;21.30;71.30
45537;DHT22;31262;51.978;5.924;2022-07-22T00:09:34;21.40;71.30
45537;DHT22;31262;51.978;5.924;2022-07-22T00:11:59;21.40;71.20
45537;DHT22;31262;51.978;5.924;2022-07-22T00:14:25;21.40;71.00
45537;DHT22;31262;51.978;5.924;2022-07-22T00:16:51;21.40;71.20
45537;DHT22;31262;51.978;5.924;2022-07-22T00:19:17;21.40;71.20
45537;DHT22;31262;51.978;5.924;2022-07-22T00:21:43;21.50;71.10
45537;DHT22;31262;51.978;5.924;2022-07-22T00:24:08;21.50;70.80
45537;DHT22;31262;51.978;5.924;2022-07-22T00:26:34;21.60;70.70
45537;DHT22;31262;51.978;5.924;2022-07-22T00:29:00;21.60;70.60
45537;DHT22;31262;51.978;5.924;2022-07-22T00:31:26;21.60;70.50
45537;DHT22;31262;51.978;5.924;2022-07-22T00:33:52;21.60;70.50
45537;DHT22;31262;51.978;5.924;2022-07-22T00:36:17;21.60;70.60
45537;DHT22;31262;51.978;5.924;2022-07-22T00:38:43;21.50;70.60
45537;DHT22;31262;51.978;5.924;2022-07-22T00:41:09;21.50;70.70
45537;DHT22;31262;51.978;5.924;2022-07-22T00:43:54;21.50;70.60
45537;DHT22;31262;51.978;5.924;2022-07-22T00:46:21;21.40;70.70
45537;DHT22;31262;51.978;5.924;2022-07-22T00:48:46;21.30;71.50
45537;DHT22;31262;51.978;5.924;2022-07-22T00:51:12;21.40;71.40
45537;DHT22;31262;51.978;5.924;2022-07-22T00:53:38;21.30;71.30
45537;DHT22;31262;51.978;5.924;2022-07-22T00:56:04;21.20;71.10
45537;DHT22;31262;51.978;5.924;2022-07-22T00:58:30;21.10;71.50
45537;DHT22;31262;51.978;5.924;2022-07-22T01:00:56;21.10;71.70
45537;DHT22;31262;51.978;5.924;2022-07-22T01:03:21;21.10;71.60
45537;DHT22;31262;51.978;5.924;2022-07-22T01:05:47;21.10;71.80
45537;DHT22;31262;51.978;5.924;2022-07-22T01:08:13;21.10;71.80
45537;DHT22;31262;51.978;5.924;2022-07-22T01:10:38;21.00;71.90
45537;DHT22;31262;51.978;5.924;2022-07-22T01:13:05;21.00;71.90
45537;DHT22;31262;51.978;5.924;2022-07-22T01:15:31;21.00;71.70
45537;DHT22;31262;51.978;5.924;2022-07-22T01:17:58;21.10;71.70
45537;DHT22;31262;51.978;5.924;2022-07-22T01:20:24;21.10;71.60
45537;DHT22;31262;51.978;5.924;2022-07-22T01:22:51;21.10;71.80
45537;DHT22;31262;51.978;5.924;2022-07-22T01:25:17;21.10;72.00
45537;DHT22;31262;51.978;5.924;2022-07-22T01:27:42;21.10;72.10
45537;DHT22;31262;51.978;5.924;2022-07-22T01:30:08;21.00;71.90
45537;DHT22;31262;51.978;5.924;2022-07-22T01:32:34;21.00;72.20
45537;DHT22;31262;51.978;5.924;2022-07-22T01:35:00;21.00;72.20
45537;DHT22;31262;51.978;5.924;2022-07-22T01:37:25;21.00;72.10
45537;DHT22;31262;51.978;5.924;2022-07-22T01:39:51;21.10;71.90
45537;DHT22;31262;51.978;5.924;2022-07-22T01:42:17;21.10;71.60
45537;DHT22;31262;51.978;5.924;2022-07-22T01:44:43;21.10;71.60
45537;DHT22;31262;51.978;5.924;2022-07-22T01:47:09;21.10;71.70
45537;DHT22;31262;51.978;5.924;2022-07-22T01:49:35;21.10;71.70
45537;DHT22;31262;51.978;5.924;2022-07-22T01:52:03;21.10;71.70
45537;DHT22;31262;51.978;5.924;2022-07-22T01:54:29;21.10;71.80
45537;DHT22;31262;51.978;5.924;2022-07-22T01:56:54;21.00;71.80
45537;DHT22;31262;51.978;5.924;2022-07-22T01:59:20;21.10;71.70
45537;DHT22;31262;51.978;5.924;2022-07-22T02:01:45;21.00;71.60
45537;DHT22;31262;51.978;5.924;2022-07-22T02:04:11;21.00;71.70
45537;DHT22;31262;51.978;5.924;2022-07-22T02:06:37;21.10;71.50
45537;DHT22;31262;51.978;5.924;2022-07-22T02:09:03;20.90;71.70
45537;DHT22;31262;51.978;5.924;2022-07-22T02:11:29;20.90;71.50
45537;DHT22;31262;51.978;5.924;2022-07-22T02:13:54;21.00;71.70
45537;DHT22;31262;51.978;5.924;2022-07-22T02:16:20;20.90;71.40
45537;DHT22;31262;51.978;5.924;2022-07-22T02:18:46;20.90;71.50
45537;DHT22;31262;51.978;5.924;2022-07-22T02:21:11;20.80;71.60
45537;DHT22;31262;51.978;5.924;2022-07-22T02:23:37;20.90;71.40
45537;DHT22;31262;51.978;5.924;2022-07-22T02:26:03;20.90;71.40
45537;DHT22;31262;51.978;5.924;2022-07-22T02:28:28;20.90;71.40
45537;DHT22;31262;51.978;5.924;2022-07-22T02:30:54;20.90;71.50
45537;DHT22;31262;51.978;5.924;2022-07-22T02:33:19;20.90;71.20
45537;DHT22;31262;51.978;5.924;2022-07-22T02:35:45;20.90;71.00
45537;DHT22;31262;51.978;5.924;2022-07-22T02:38:11;21.00;71.00
45537;DHT22;31262;51.978;5.924;2022-07-22T02:40:36;21.00;70.90
45537;DHT22;31262;51.978;5.924;2022-07-22T02:43:02;21.00;70.70
45537;DHT22;31262;51.978;5.924;2022-07-22T02:45:31;21.00;70.60
45537;DHT22;31262;51.978;5.924;2022-07-22T02:47:57;21.10;70.80
45537;DHT22;31262;51.978;5.924;2022-07-22T02:50:23;21.00;71.00
45537;DHT22;31262;51.978;5.924;2022-07-22T02:52:49;21.00;70.90
45537;DHT22;31262;51.978;5.924;2022-07-22T02:55:15;21.10;70.80
45537;DHT22;31262;51.978;5.924;2022-07-22T02:57:41;21.20;70.60
45537;DHT22;31262;51.978;5.924;2022-07-22T03:00:08;21.20;70.40
45537;DHT22;31262;51.978;5.924;2022-07-22T03:02:35;21.10;70.70
45537;DHT22;31262;51.978;5.924;2022-07-22T03:05:01;21.20;71.00
45537;DHT22;31262;51.978;5.924;2022-07-22T03:07:27;21.40;70.70
45537;DHT22;31262;51.978;5.924;2022-07-22T03:09:53;21.40;70.10
45537;DHT22;31262;51.978;5.924;2022-07-22T03:12:18;21.40;69.90
45537;DHT22;31262;51.978;5.924;2022-07-22T03:14:44;21.50;69.50
45537;DHT22;31262;51.978;5.924;2022-07-22T03:17:09;21.50;69.50
45537;DHT22;31262;51.978;5.924;2022-07-22T03:19:35;21.50;69.30
45537;DHT22;31262;51.978;5.924;2022-07-22T03:22:01;21.50;69.10
45537;DHT22;31262;51.978;5.924;2022-07-22T03:24:26;21.50;69.30
45537;DHT22;31262;51.978;5.924;2022-07-22T03:26:52;21.50;69.20
45537;DHT22;31262;51.978;5.924;2022-07-22T03:29:17;21.50;69.00
45537;DHT22;31262;51.978;5.924;2022-07-22T03:31:43;21.50;69.20
45537;DHT22;31262;51.978;5.924;2022-07-22T03:34:09;21.40;69.20
45537;DHT22;31262;51.978;5.924;2022-07-22T03:36:34;21.40;69.50
45537;DHT22;31262;51.978;5.924;2022-07-22T03:39:00;21.40;69.40
45537;DHT22;31262;51.978;5.924;2022-07-22T03:41:25;21.30;69.50
45537;DHT22;31262;51.978;5.924;2022-07-22T03:43:51;21.30;69.70
45537;DHT22;31262;51.978;5.924;2022-07-22T03:46:17;21.30;69.60
45537;DHT22;31262;51.978;5.924;2022-07-22T03:48:42;21.30;69.60
45537;DHT22;31262;51.978;5.924;2022-07-22T03:51:08;21.30;69.60
45537;DHT22;31262;51.978;5.924;2022-07-22T03:53:33;21.30;69.60
45537;DHT22;31262;51.978;5.924;2022-07-22T03:56:00;21.40;69.40
45537;DHT22;31262;51.978;5.924;2022-07-22T03:58:25;21.40;69.50
45537;DHT22;31262;51.978;5.924;2022-07-22T04:00:52;21.40;69.60
45537;DHT22;31262;51.978;5.924;2022-07-22T04:03:18;21.40;69.50
45537;DHT22;31262;51.978;5.924;2022-07-22T04:05:44;21.50;69.50
45537;DHT22;31262;51.978;5.924;2022-07-22T04:08:12;21.50;69.60
45537;DHT22;31262;51.978;5.924;2022-07-22T04:10:38;21.50;69.60
45537;DHT22;31262;51.978;5.924;2022-07-22T04:13:04;21.40;69.40
45537;DHT22;31262;51.978;5.924;2022-07-22T04:15:29;21.40;69.60
45537;DHT22;31262;51.978;5.924;2022-07-22T04:17:55;21.40;69.60
45537;DHT22;31262;51.978;5.924;2022-07-22T04:20:22;21.40;69.80
45537;DHT22;31262;51.978;5.924;2022-07-22T04:22:47;21.40;69.60
45537;DHT22;31262;51.978;5.924;2022-07-22T04:25:13;21.40;69.50
45537;DHT22;31262;51.978;5.924;2022-07-22T04:27:39;21.50;69.40
45537;DHT22;31262;51.978;5.924;2022-07-22T04:30:06;21.50;69.20
45537;DHT22;31262;51.978;5.924;2022-07-22T04:32:32;21.50;69.20
45537;DHT22;31262;51.978;5.924;2022-07-22T04:34:57;21.50;69.40
45537;DHT22;31262;51.978;5.924;2022-07-22T04:37:23;21.60;69.40
45537;DHT22;31262;51.978;5.924;2022-07-22T04:39:48;21.70;69.20
45537;DHT22;31262;51.978;5.924;2022-07-22T04:42:14;21.70;69.00
45537;DHT22;31262;51.978;5.924;2022-07-22T04:44:40;21.70;69.00
45537;DHT22;31262;51.978;5.924;2022-07-22T04:47:05;21.70;68.80
45537;DHT22;31262;51.978;5.924;2022-07-22T04:49:31;21.70;68.60
45537;DHT22;31262;51.978;5.924;2022-07-22T04:51:56;21.70;68.50
45537;DHT22;31262;51.978;5.924;2022-07-22T04:54:22;21.70;68.40
45537;DHT22;31262;51.978;5.924;2022-07-22T04:56:48;21.70;68.20
45537;DHT22;31262;51.978;5.924;2022-07-22T04:59:13;21.70;68.10
45537;DHT22;31262;51.978;5.924;2022-07-22T05:01:40;21.60;68.10
45537;DHT22;31262;51.978;5.924;2022-07-22T05:04:06;21.50;68.30
45537;DHT22;31262;51.978;5.924;2022-07-22T05:06:32;21.40;68.40
45537;DHT22;31262;51.978;5.924;2022-07-22T05:08:58;21.30;68.60
45537;DHT22;31262;51.978;5.924;2022-07-22T05:11:24;21.10;68.60
45537;DHT22;31262;51.978;5.924;2022-07-22T05:13:50;21.00;69.50
45537;DHT22;31262;51.978;5.924;2022-07-22T05:16:15;21.10;70.10
45537;DHT22;31262;51.978;5.924;2022-07-22T05:18:41;21.20;69.10
45537;DHT22;31262;51.978;5.924;2022-07-22T05:21:07;21.20;69.10
45537;DHT22;31262;51.978;5.924;2022-07-22T05:23:33;21.10;68.70
45537;DHT22;31262;51.978;5.924;2022-07-22T05:25:58;21.10;68.80
45537;DHT22;31262;51.978;5.924;2022-07-22T05:28:24;21.00;68.90
45537;DHT22;31262;51.978;5.924;2022-07-22T05:30:49;21.00;68.80
45537;DHT22;31262;51.978;5.924;2022-07-22T05:33:15;20.90;68.80
45537;DHT22;31262;51.978;5.924;2022-07-22T05:35:41;20.90;69.00
45537;DHT22;31262;51.978;5.924;2022-07-22T05:38:06;20.90;69.10
45537;DHT22;31262;51.978;5.924;2022-07-22T05:40:32;20.90;69.10
45537;DHT22;31262;51.978;5.924;2022-07-22T05:42:58;20.90;69.00
45537;DHT22;31262;51.978;5.924;2022-07-22T05:45:23;20.80;68.90
45537;DHT22;31262;51.978;5.924;2022-07-22T05:47:49;20.90;68.70
45537;DHT22;31262;51.978;5.924;2022-07-22T05:50:15;20.90;68.90
45537;DHT22;31262;51.978;5.924;2022-07-22T05:52:40;20.90;68.70
45537;DHT22;31262;51.978;5.924;2022-07-22T05:55:06;20.90;68.60
45537;DHT22;31262;51.978;5.924;2022-07-22T05:57:32;21.00;68.60
45537;DHT22;31262;51.978;5.924;2022-07-22T05:59:58;21.00;68.40
45537;DHT22;31262;51.978;5.924;2022-07-22T06:02:24;20.90;68.40
45537;DHT22;31262;51.978;5.924;2022-07-22T06:04:50;21.00;68.40
45537;DHT22;31262;51.978;5.924;2022-07-22T06:07:15;21.00;68.40
45537;DHT22;31262;51.978;5.924;2022-07-22T06:09:41;21.00;68.20
45537;DHT22;31262;51.978;5.924;2022-07-22T06:12:07;21.00;68.20
45537;DHT22;31262;51.978;5.924;2022-07-22T06:14:32;21.00;68.20
45537;DHT22;31262;51.978;5.924;2022-07-22T06:16:58;21.00;68.40
45537;DHT22;31262;51.978;5.924;2022-07-22T06:19:24;21.00;68.20
45537;DHT22;31262;51.978;5.924;2022-07-22T06:21:50;21.00;67.80
45537;DHT22;31262;51.978;5.924;2022-07-22T06:24:16;20.90;67.80
45537;DHT22;31262;51.978;5.924;2022-07-22T06:26:42;20.90;67.80
45537;DHT22;31262;51.978;5.924;2022-07-22T06:29:07;20.90;68.20
45537;DHT22;31262;51.978;5.924;2022-07-22T06:31:33;20.80;67.60
45537;DHT22;31262;51.978;5.924;2022-07-22T06:33:59;20.80;68.00
45537;DHT22;31262;51.978;5.924;2022-07-22T06:36:24;20.70;67.70
45537;DHT22;31262;51.978;5.924;2022-07-22T06:38:50;20.70;67.50
45537;DHT22;31262;51.978;5.924;2022-07-22T06:41:18;20.70;67.50
45537;DHT22;31262;51.978;5.924;2022-07-22T06:43:45;20.70;67.90
45537;DHT22;31262;51.978;5.924;2022-07-22T06:46:11;20.70;68.10
45537;DHT22;31262;51.978;5.924;2022-07-22T06:48:36;20.70;68.30
45537;DHT22;31262;51.978;5.924;2022-07-22T06:51:02;20.90;68.40
45537;DHT22;31262;51.978;5.924;2022-07-22T06:53:28;20.90;68.60
45537;DHT22;31262;51.978;5.924;2022-07-22T06:55:53;20.90;68.80
45537;DHT22;31262;51.978;5.924;2022-07-22T06:58:19;20.90;68.40
45537;DHT22;31262;51.978;5.924;2022-07-22T07:00:45;20.90;68.00
45537;DHT22;31262;51.978;5.924;2022-07-22T07:03:10;21.00;67.70
45537;DHT22;31262;51.978;5.924;2022-07-22T07:05:36;21.00;67.40
45537;DHT22;31262;51.978;5.924;2022-07-22T07:08:02;21.10;67.10
45537;DHT22;31262;51.978;5.924;2022-07-22T07:10:28;21.10;67.00
45537;DHT22;31262;51.978;5.924;2022-07-22T07:12:57;21.20;67.10
45537;DHT22;31262;51.978;5.924;2022-07-22T07:15:24;21.30;67.40
45537;DHT22;31262;51.978;5.924;2022-07-22T07:17:51;21.30;67.30
45537;DHT22;31262;51.978;5.924;2022-07-22T07:20:17;21.30;67.10
45537;DHT22;31262;51.978;5.924;2022-07-22T07:22:43;21.30;67.20
45537;DHT22;31262;51.978;5.924;2022-07-22T07:25:09;21.30;66.80
45537;DHT22;31262;51.978;5.924;2022-07-22T07:27:35;21.30;66.80
45537;DHT22;31262;51.978;5.924;2022-07-22T07:30:03;21.40;66.80
45537;DHT22;31262;51.978;5.924;2022-07-22T07:32:29;21.40;66.50
45537;DHT22;31262;51.978;5.924;2022-07-22T07:34:54;21.50;66.50
45537;DHT22;31262;51.978;5.924;2022-07-22T07:37:20;21.50;66.40
45537;DHT22;31262;51.978;5.924;2022-07-22T07:39:46;21.60;66.00
45537;DHT22;31262;51.978;5.924;2022-07-22T07:42:11;21.60;65.80
45537;DHT22;31262;51.978;5.924;2022-07-22T07:44:37;21.60;65.60
45537;DHT22;31262;51.978;5.924;2022-07-22T07:47:02;21.60;65.90
45537;DHT22;31262;51.978;5.924;2022-07-22T07:49:28;21.60;66.40
45537;DHT22;31262;51.978;5.924;2022-07-22T07:51:53;21.70;66.10
45537;DHT22;31262;51.978;5.924;2022-07-22T07:54:20;21.70;66.00
45537;DHT22;31262;51.978;5.924;2022-07-22T07:56:45;21.70;65.90
45537;DHT22;31262;51.978;5.924;2022-07-22T07:59:11;21.70;66.30
45537;DHT22;31262;51.978;5.924;2022-07-22T08:01:37;21.70;66.40
45537;DHT22;31262;51.978;5.924;2022-07-22T08:04:04;21.80;66.40
45537;DHT22;31262;51.978;5.924;2022-07-22T08:06:30;21.80;66.70
45537;DHT22;31262;51.978;5.924;2022-07-22T08:08:56;21.80;66.30
45537;DHT22;31262;51.978;5.924;2022-07-22T08:11:21;21.80;66.30
45537;DHT22;31262;51.978;5.924;2022-07-22T08:13:48;21.80;66.10
45537;DHT22;31262;51.978;5.924;2022-07-22T08:16:14;21.90;66.30
45537;DHT22;31262;51.978;5.924;2022-07-22T08:18:40;21.90;66.10
45537;DHT22;31262;51.978;5.924;2022-07-22T08:21:05;21.90;66.10
45537;DHT22;31262;51.978;5.924;2022-07-22T08:23:31;21.90;66.10
45537;DHT22;31262;51.978;5.924;2022-07-22T08:25:57;21.90;66.00
45537;DHT22;31262;51.978;5.924;2022-07-22T08:28:23;21.90;66.00
45537;DHT22;31262;51.978;5.924;2022-07-22T08:30:48;21.90;66.00
45537;DHT22;31262;51.978;5.924;2022-07-22T08:33:14;21.90;66.00
45537;DHT22;31262;51.978;5.924;2022-07-22T08:35:40;21.90;65.70
45537;DHT22;31262;51.978;5.924;2022-07-22T08:38:05;21.90;65.40
45537;DHT22;31262;51.978;5.924;2022-07-22T08:40:31;22.00;65.40
45537;DHT22;31262;51.978;5.924;2022-07-22T08:42:57;22.00;65.50
45537;DHT22;31262;51.978;5.924;2022-07-22T08:45:23;22.10;65.40
45537;DHT22;31262;51.978;5.924;2022-07-22T08:47:50;22.10;65.30
45537;DHT22;31262;51.978;5.924;2022-07-22T08:50:16;22.20;65.00
45537;DHT22;31262;51.978;5.924;2022-07-22T08:52:42;22.20;65.00
45537;DHT22;31262;51.978;5.924;2022-07-22T08:55:08;22.30;64.70
45537;DHT22;31262;51.978;5.924;2022-07-22T08:57:34;22.30;64.90
45537;DHT22;31262;51.978;5.924;2022-07-22T09:00:09;22.30;65.10
45537;DHT22;31262;51.978;5.924;2022-07-22T09:02:40;22.40;65.40
45537;DHT22;31262;51.978;5.924;2022-07-22T09:05:08;22.50;64.60
45537;DHT22;31262;51.978;5.924;2022-07-22T09:07:37;22.50;64.70
45537;DHT22;31262;51.978;5.924;2022-07-22T09:10:10;22.50;64.50
45537;DHT22;31262;51.978;5.924;2022-07-22T09:12:55;22.50;64.20
45537;DHT22;31262;51.978;5.924;2022-07-22T09:15:27;22.50;64.00
45537;DHT22;31262;51.978;5.924;2022-07-22T09:17:54;22.40;64.50
45537;DHT22;31262;51.978;5.924;2022-07-22T09:20:20;22.40;64.40
45537;DHT22;31262;51.978;5.924;2022-07-22T09:22:47;22.40;64.40
45537;DHT22;31262;51.978;5.924;2022-07-22T09:27:52;22.50;64.40
45537;DHT22;31262;51.978;5.924;2022-07-22T09:30:24;22.40;64.00
45537;DHT22;31262;51.978;5.924;2022-07-22T09:32:51;22.40;64.20
45537;DHT22;31262;51.978;5.924;2022-07-22T09:35:17;22.30;64.50
45537;DHT22;31262;51.978;5.924;2022-07-22T09:37:58;22.30;64.30
45537;DHT22;31262;51.978;5.924;2022-07-22T09:40:26;22.40;63.90
45537;DHT22;31262;51.978;5.924;2022-07-22T09:42:54;22.40;63.90
45537;DHT22;31262;51.978;5.924;2022-07-22T09:45:21;22.40;63.80
45537;DHT22;31262;51.978;5.924;2022-07-22T09:47:48;22.40;63.30
45537;DHT22;31262;51.978;5.924;2022-07-22T09:50:26;22.40;63.10
45537;DHT22;31262;51.978;5.924;2022-07-22T09:52:54;22.50;63.30
45537;DHT22;31262;51.978;5.924;2022-07-22T09:55:21;22.40;63.10
45537;DHT22;31262;51.978;5.924;2022-07-22T09:57:49;22.40;63.10
45537;DHT22;31262;51.978;5.924;2022-07-22T10:00:18;22.50;63.30
45537;DHT22;31262;51.978;5.924;2022-07-22T10:02:51;22.50;62.80
45537;DHT22;31262;51.978;5.924;2022-07-22T10:05:19;22.60;62.50
45537;DHT22;31262;51.978;5.924;2022-07-22T10:07:46;22.60;62.60
45537;DHT22;31262;51.978;5.924;2022-07-22T10:10:14;22.60;62.50
45537;DHT22;31262;51.978;5.924;2022-07-22T10:12:41;22.70;62.30
45537;DHT22;31262;51.978;5.924;2022-07-22T10:15:08;22.70;61.90
45537;DHT22;31262;51.978;5.924;2022-07-22T10:17:37;22.80;61.50
45537;DHT22;31262;51.978;5.924;2022-07-22T10:20:05;22.90;60.90
45537;DHT22;31262;51.978;5.924;2022-07-22T10:25:10;22.90;60.40
45537;DHT22;31262;51.978;5.924;2022-07-22T10:30:17;23.00;60.60
45537;DHT22;31262;51.978;5.924;2022-07-22T10:32:43;23.10;60.70
45537;DHT22;31262;51.978;5.924;2022-07-22T10:40:22;23.40;59.40
45537;DHT22;31262;51.978;5.924;2022-07-22T10:45:26;23.70;58.80
45537;DHT22;31262;51.978;5.924;2022-07-22T10:48:12;23.80;58.40
45537;DHT22;31262;51.978;5.924;2022-07-22T10:50:39;23.90;57.90
45537;DHT22;31262;51.978;5.924;2022-07-22T10:53:07;23.90;57.60
45537;DHT22;31262;51.978;5.924;2022-07-22T10:55:34;24.00;57.10
45537;DHT22;31262;51.978;5.924;2022-07-22T10:58:00;24.00;57.30
45537;DHT22;31262;51.978;5.924;2022-07-22T11:00:26;24.00;57.20
45537;DHT22;31262;51.978;5.924;2022-07-22T11:02:52;24.00;56.40
45537;DHT22;31262;51.978;5.924;2022-07-22T11:05:28;24.00;56.60
45537;DHT22;31262;51.978;5.924;2022-07-22T11:07:55;24.10;56.60
45537;DHT22;31262;51.978;5.924;2022-07-22T11:10:21;24.10;56.60
45537;DHT22;31262;51.978;5.924;2022-07-22T11:12:48;24.10;56.70
45537;DHT22;31262;51.978;5.924;2022-07-22T11:15:15;24.10;56.30
45537;DHT22;31262;51.978;5.924;2022-07-22T11:17:41;24.20;56.50
45537;DHT22;31262;51.978;5.924;2022-07-22T11:20:09;24.30;56.10
45537;DHT22;31262;51.978;5.924;2022-07-22T11:22:36;24.40;55.30
45537;DHT22;31262;51.978;5.924;2022-07-22T11:25:04;24.40;55.70
45537;DHT22;31262;51.978;5.924;2022-07-22T11:27:30;24.40;55.00
45537;DHT22;31262;51.978;5.924;2022-07-22T11:29:56;24.40;55.40
45537;DHT22;31262;51.978;5.924;2022-07-22T11:32:24;24.40;55.10
45537;DHT22;31262;51.978;5.924;2022-07-22T11:34:51;24.40;53.90
45537;DHT22;31262;51.978;5.924;2022-07-22T11:37:19;24.30;54.30
45537;DHT22;31262;51.978;5.924;2022-07-22T11:39:45;24.30;55.00
45537;DHT22;31262;51.978;5.924;2022-07-22T11:42:11;24.30;54.50
45537;DHT22;31262;51.978;5.924;2022-07-22T11:44:38;24.30;54.60
45537;DHT22;31262;51.978;5.924;2022-07-22T11:47:06;24.30;53.50
45537;DHT22;31262;51.978;5.924;2022-07-22T11:49:34;24.20;53.10
45537;DHT22;31262;51.978;5.924;2022-07-22T11:52:02;24.10;53.50
45537;DHT22;31262;51.978;5.924;2022-07-22T11:54:28;24.10;54.00
45537;DHT22;31262;51.978;5.924;2022-07-22T11:56:54;24.10;54.30
45537;DHT22;31262;51.978;5.924;2022-07-22T11:59:20;24.20;54.70
45537;DHT22;31262;51.978;5.924;2022-07-22T12:01:48;24.30;54.90
45537;DHT22;31262;51.978;5.924;2022-07-22T12:04:22;24.30;54.50
45537;DHT22;31262;51.978;5.924;2022-07-22T12:06:48;24.50;54.90
45537;DHT22;31262;51.978;5.924;2022-07-22T12:09:16;24.50;54.20
45537;DHT22;31262;51.978;5.924;2022-07-22T12:11:48;24.50;53.70
45537;DHT22;31262;51.978;5.924;2022-07-22T12:14:19;24.50;53.60
45537;DHT22;31262;51.978;5.924;2022-07-22T12:17:00;24.50;53.40
45537;DHT22;31262;51.978;5.924;2022-07-22T12:19:28;24.50;53.30
45537;DHT22;31262;51.978;5.924;2022-07-22T12:21:57;24.40;54.10
45537;DHT22;31262;51.978;5.924;2022-07-22T12:24:40;24.50;54.00
45537;DHT22;31262;51.978;5.924;2022-07-22T12:27:14;24.60;54.00
45537;DHT22;31262;51.978;5.924;2022-07-22T12:34:42;24.80;54.20
45537;DHT22;31262;51.978;5.924;2022-07-22T12:37:21;24.90;54.00
45537;DHT22;31262;51.978;5.924;2022-07-22T12:40:06;25.10;53.30
45537;DHT22;31262;51.978;5.924;2022-07-22T12:42:33;25.20;52.70
45537;DHT22;31262;51.978;5.924;2022-07-22T12:47:53;25.40;51.40
45537;DHT22;31262;51.978;5.924;2022-07-22T12:50:39;25.40;51.70
45537;DHT22;31262;51.978;5.924;2022-07-22T12:55:36;25.30;51.00
45537;DHT22;31262;51.978;5.924;2022-07-22T12:58:03;25.40;51.40
45537;DHT22;31262;51.978;5.924;2022-07-22T13:00:38;25.40;51.40
45537;DHT22;31262;51.978;5.924;2022-07-22T13:03:04;25.40;50.50
45537;DHT22;31262;51.978;5.924;2022-07-22T13:05:30;25.40;50.50
45537;DHT22;31262;51.978;5.924;2022-07-22T13:07:56;25.40;50.80
45537;DHT22;31262;51.978;5.924;2022-07-22T13:10:22;25.40;51.10
45537;DHT22;31262;51.978;5.924;2022-07-22T13:12:48;25.40;50.30
45537;DHT22;31262;51.978;5.924;2022-07-22T13:15:15;25.40;50.60
45537;DHT22;31262;51.978;5.924;2022-07-22T13:17:41;25.50;50.90
45537;DHT22;31262;51.978;5.924;2022-07-22T13:20:08;25.40;50.60
45537;DHT22;31262;51.978;5.924;2022-07-22T13:22:34;25.60;50.40
45537;DHT22;31262;51.978;5.924;2022-07-22T13:24:59;25.70;50.40
45537;DHT22;31262;51.978;5.924;2022-07-22T13:27:25;25.70;50.30
45537;DHT22;31262;51.978;5.924;2022-07-22T13:29:51;25.70;50.10
45537;DHT22;31262;51.978;5.924;2022-07-22T13:32:16;25.80;49.90
45537;DHT22;31262;51.978;5.924;2022-07-22T13:34:42;25.90;50.10
45537;DHT22;31262;51.978;5.924;2022-07-22T13:37:08;25.90;50.20
45537;DHT22;31262;51.978;5.924;2022-07-22T13:39:34;25.90;50.10
45537;DHT22;31262;51.978;5.924;2022-07-22T13:41:59;25.90;50.30
45537;DHT22;31262;51.978;5.924;2022-07-22T13:44:25;25.90;50.30
45537;DHT22;31262;51.978;5.924;2022-07-22T13:46:51;25.90;50.50
45537;DHT22;31262;51.978;5.924;2022-07-22T13:49:17;25.90;50.20
45537;DHT22;31262;51.978;5.924;2022-07-22T13:51:43;25.90;49.90
45537;DHT22;31262;51.978;5.924;2022-07-22T13:54:09;25.80;49.90
45537;DHT22;31262;51.978;5.924;2022-07-22T13:56:35;25.80;49.90
45537;DHT22;31262;51.978;5.924;2022-07-22T13:59:01;25.70;49.90
45537;DHT22;31262;51.978;5.924;2022-07-22T14:01:27;25.80;50.10
45537;DHT22;31262;51.978;5.924;2022-07-22T14:03:53;25.70;50.20
45537;DHT22;31262;51.978;5.924;2022-07-22T14:06:19;25.70;50.10
45537;DHT22;31262;51.978;5.924;2022-07-22T14:08:45;25.70;50.40
45537;DHT22;31262;51.978;5.924;2022-07-22T14:11:10;25.70;50.40
45537;DHT22;31262;51.978;5.924;2022-07-22T14:13:36;25.70;50.60
45537;DHT22;31262;51.978;5.924;2022-07-22T14:16:01;25.70;50.80
45537;DHT22;31262;51.978;5.924;2022-07-22T14:18:50;25.80;51.40
45537;DHT22;31262;51.978;5.924;2022-07-22T14:21:16;25.60;51.70
45537;DHT22;31262;51.978;5.924;2022-07-22T14:23:41;25.70;51.70
45537;DHT22;31262;51.978;5.924;2022-07-22T14:26:07;25.90;51.50
45537;DHT22;31262;51.978;5.924;2022-07-22T14:28:32;25.90;51.40
45537;DHT22;31262;51.978;5.924;2022-07-22T14:30:58;25.90;51.30
45537;DHT22;31262;51.978;5.924;2022-07-22T14:33:23;26.00;51.30
45537;DHT22;31262;51.978;5.924;2022-07-22T14:35:49;26.00;51.60
45537;DHT22;31262;51.978;5.924;2022-07-22T14:38:15;26.00;51.50
45537;DHT22;31262;51.978;5.924;2022-07-22T14:40:40;26.00;51.30
45537;DHT22;31262;51.978;5.924;2022-07-22T14:43:06;26.00;51.30
45537;DHT22;31262;51.978;5.924;2022-07-22T14:45:32;26.10;51.30
45537;DHT22;31262;51.978;5.924;2022-07-22T14:47:57;26.10;51.20
45537;DHT22;31262;51.978;5.924;2022-07-22T14:50:23;26.10;51.00
45537;DHT22;31262;51.978;5.924;2022-07-22T14:52:48;26.10;51.20
45537;DHT22;31262;51.978;5.924;2022-07-22T14:55:14;26.10;51.20
45537;DHT22;31262;51.978;5.924;2022-07-22T14:57:40;26.10;51.00
45537;DHT22;31262;51.978;5.924;2022-07-22T15:00:07;26.10;50.80
45537;DHT22;31262;51.978;5.924;2022-07-22T15:02:33;26.00;50.80
45537;DHT22;31262;51.978;5.924;2022-07-22T15:04:59;26.00;51.00
45537;DHT22;31262;51.978;5.924;2022-07-22T15:07:25;25.90;51.30
45537;DHT22;31262;51.978;5.924;2022-07-22T15:09:50;25.80;51.40
45537;DHT22;31262;51.978;5.924;2022-07-22T15:12:16;25.80;51.50
45537;DHT22;31262;51.978;5.924;2022-07-22T15:14:41;25.80;51.70
45537;DHT22;31262;51.978;5.924;2022-07-22T15:17:07;25.80;51.70
45537;DHT22;31262;51.978;5.924;2022-07-22T15:19:33;25.70;51.50
45537;DHT22;31262;51.978;5.924;2022-07-22T15:21:58;25.80;51.70
45537;DHT22;31262;51.978;5.924;2022-07-22T15:24:25;25.70;51.70
45537;DHT22;31262;51.978;5.924;2022-07-22T15:26:50;25.70;51.70
45537;DHT22;31262;51.978;5.924;2022-07-22T15:29:16;25.60;51.90
45537;DHT22;31262;51.978;5.924;2022-07-22T15:31:42;25.60;51.90
45537;DHT22;31262;51.978;5.924;2022-07-22T15:34:07;25.60;51.80
45537;DHT22;31262;51.978;5.924;2022-07-22T15:36:33;25.50;52.00
45537;DHT22;31262;51.978;5.924;2022-07-22T15:38:59;25.50;52.10
45537;DHT22;31262;51.978;5.924;2022-07-22T15:41:26;25.50;52.70
45537;DHT22;31262;51.978;5.924;2022-07-22T15:43:53;25.50;52.20
45537;DHT22;31262;51.978;5.924;2022-07-22T15:46:18;25.60;52.20
45537;DHT22;31262;51.978;5.924;2022-07-22T15:48:44;25.40;52.10
45537;DHT22;31262;51.978;5.924;2022-07-22T15:51:10;25.40;52.00
45537;DHT22;31262;51.978;5.924;2022-07-22T15:53:36;25.40;51.90